Weather at Ein Shemer Airfield

Public forecast

Using degrees Celsius for public forecast. Weather courtesy of forecast.io.

Closest aviation weather report (METAR) to Ein Shemer Airfield

Closest report is Haifa International Airport, 22.2 nm (41.1 km) N. Retrieved 2021/10/27 10:50 UTC (14 minutes ago):

LLHA 271050Z 33009KT CAVOK 25/17 Q1016

Closest aviation forecast (TAF) to Ein Shemer Airfield

Closest forecast is Herzliya Airport, 17.9 nm (33.2 km) SSW. Retrieved 2021/10/27 06:00 UTC (5 hours ago):

TAF LLHZ 270505Z 2706/2806 VRB03KT 9999 FEW030 BECMG 2707/2710 32010KT CAVOK BECMG 2715/2718 VRB03KT TX26/2710Z TN17/2804Z